sensor_id;sensor_type;location;lat;lon;timestamp;P1;durP1;ratioP1;P2;durP2;ratioP2
50821;SDS011;36794;51.212;6.980;2022-12-29T00:01:32;2.87;;;1.60;;
50821;SDS011;36794;51.212;6.980;2022-12-29T00:03:58;2.60;;;1.40;;
50821;SDS011;36794;51.212;6.980;2022-12-29T00:06:25;4.70;;;1.87;;
50821;SDS011;36794;51.212;6.980;2022-12-29T00:08:51;4.30;;;2.00;;
50821;SDS011;36794;51.212;6.980;2022-12-29T00:11:18;4.70;;;2.27;;
50821;SDS011;36794;51.212;6.980;2022-12-29T00:13:44;2.60;;;1.67;;
50821;SDS011;36794;51.212;6.980;2022-12-29T00:16:29;2.70;;;1.40;;
50821;SDS011;36794;51.212;6.980;2022-12-29T00:18:55;4.70;;;1.70;;
50821;SDS011;36794;51.212;6.980;2022-12-29T00:21:22;4.93;;;1.50;;
50821;SDS011;36794;51.212;6.980;2022-12-29T00:24:09;2.87;;;1.30;;
50821;SDS011;36794;51.212;6.980;2022-12-29T00:26:56;2.00;;;1.17;;
50821;SDS011;36794;51.212;6.980;2022-12-29T00:29:42;2.17;;;1.40;;
50821;SDS011;36794;51.212;6.980;2022-12-29T00:32:26;3.17;;;1.35;;
50821;SDS011;36794;51.212;6.980;2022-12-29T00:35:11;2.88;;;1.42;;
50821;SDS011;36794;51.212;6.980;2022-12-29T00:37:40;2.23;;;1.17;;
50821;SDS011;36794;51.212;6.980;2022-12-29T00:40:26;1.57;;;1.17;;
50821;SDS011;36794;51.212;6.980;2022-12-29T00:43:10;1.40;;;1.00;;
50821;SDS011;36794;51.212;6.980;2022-12-29T00:48:21;1.33;;;0.80;;
50821;SDS011;36794;51.212;6.980;2022-12-29T00:51:06;1.85;;;0.90;;
50821;SDS011;36794;51.212;6.980;2022-12-29T00:53:33;1.60;;;0.90;;
50821;SDS011;36794;51.212;6.980;2022-12-29T00:55:59;1.60;;;1.10;;
50821;SDS011;36794;51.212;6.980;2022-12-29T00:58:28;1.33;;;0.90;;
50821;SDS011;36794;51.212;6.980;2022-12-29T01:01:28;1.83;;;1.00;;
50821;SDS011;36794;51.212;6.980;2022-12-29T01:03:46;1.70;;;0.70;;
50821;SDS011;36794;51.212;6.980;2022-12-29T01:06:12;1.37;;;0.93;;
50821;SDS011;36794;51.212;6.980;2022-12-29T01:08:38;2.87;;;0.97;;
50821;SDS011;36794;51.212;6.980;2022-12-29T01:13:30;1.07;;;0.70;;
50821;SDS011;36794;51.212;6.980;2022-12-29T01:15:56;3.03;;;1.00;;
50821;SDS011;36794;51.212;6.980;2022-12-29T01:18:23;4.27;;;1.00;;
50821;SDS011;36794;51.212;6.980;2022-12-29T01:20:49;2.00;;;1.10;;
50821;SDS011;36794;51.212;6.980;2022-12-29T01:23:15;3.47;;;1.30;;
50821;SDS011;36794;51.212;6.980;2022-12-29T01:25:42;1.83;;;0.80;;
50821;SDS011;36794;51.212;6.980;2022-12-29T01:28:08;2.53;;;0.77;;
50821;SDS011;36794;51.212;6.980;2022-12-29T01:30:34;3.57;;;0.80;;
50821;SDS011;36794;51.212;6.980;2022-12-29T01:33:00;2.90;;;0.93;;
50821;SDS011;36794;51.212;6.980;2022-12-29T01:35:26;1.90;;;0.90;;
50821;SDS011;36794;51.212;6.980;2022-12-29T01:37:52;4.13;;;1.30;;
50821;SDS011;36794;51.212;6.980;2022-12-29T01:40:18;4.03;;;1.13;;
50821;SDS011;36794;51.212;6.980;2022-12-29T01:42:44;4.13;;;1.13;;
50821;SDS011;36794;51.212;6.980;2022-12-29T01:45:11;4.40;;;1.00;;
50821;SDS011;36794;51.212;6.980;2022-12-29T01:47:38;3.70;;;1.47;;
50821;SDS011;36794;51.212;6.980;2022-12-29T01:50:07;1.13;;;0.43;;
50821;SDS011;36794;51.212;6.980;2022-12-29T01:52:35;6.17;;;1.00;;
50821;SDS011;36794;51.212;6.980;2022-12-29T01:55:03;1.60;;;0.60;;
50821;SDS011;36794;51.212;6.980;2022-12-29T01:57:31;2.50;;;0.40;;
50821;SDS011;36794;51.212;6.980;2022-12-29T02:00:00;2.13;;;0.77;;
50821;SDS011;36794;51.212;6.980;2022-12-29T02:02:28;1.63;;;0.30;;
50821;SDS011;36794;51.212;6.980;2022-12-29T02:04:55;0.70;;;0.20;;
50821;SDS011;36794;51.212;6.980;2022-12-29T02:07:24;0.87;;;0.20;;
50821;SDS011;36794;51.212;6.980;2022-12-29T02:09:51;1.20;;;0.30;;
50821;SDS011;36794;51.212;6.980;2022-12-29T02:12:18;1.47;;;0.20;;
50821;SDS011;36794;51.212;6.980;2022-12-29T02:14:45;0.40;;;0.27;;
50821;SDS011;36794;51.212;6.980;2022-12-29T02:17:14;0.43;;;0.20;;
50821;SDS011;36794;51.212;6.980;2022-12-29T02:22:23;0.50;;;0.20;;
50821;SDS011;36794;51.212;6.980;2022-12-29T02:27:23;1.40;;;0.20;;
50821;SDS011;36794;51.212;6.980;2022-12-29T02:30:00;2.42;;;0.40;;
50821;SDS011;36794;51.212;6.980;2022-12-29T02:35:13;1.13;;;0.30;;
50821;SDS011;36794;51.212;6.980;2022-12-29T02:37:42;0.90;;;0.35;;
50821;SDS011;36794;51.212;6.980;2022-12-29T02:40:26;2.73;;;0.43;;
50821;SDS011;36794;51.212;6.980;2022-12-29T02:43:03;1.17;;;0.30;;
50821;SDS011;36794;51.212;6.980;2022-12-29T02:45:45;1.57;;;0.50;;
50821;SDS011;36794;51.212;6.980;2022-12-29T02:48:32;3.00;;;0.50;;
50821;SDS011;36794;51.212;6.980;2022-12-29T02:51:03;2.03;;;0.50;;
50821;SDS011;36794;51.212;6.980;2022-12-29T02:53:31;1.63;;;0.57;;
50821;SDS011;36794;51.212;6.980;2022-12-29T02:56:17;2.10;;;0.43;;
50821;SDS011;36794;51.212;6.980;2022-12-29T02:58:43;2.90;;;0.60;;
50821;SDS011;36794;51.212;6.980;2022-12-29T03:06:28;2.30;;;0.47;;
50821;SDS011;36794;51.212;6.980;2022-12-29T03:09:03;3.13;;;0.73;;
50821;SDS011;36794;51.212;6.980;2022-12-29T03:11:41;3.90;;;0.70;;
50821;SDS011;36794;51.212;6.980;2022-12-29T03:14:49;2.83;;;0.90;;
50821;SDS011;36794;51.212;6.980;2022-12-29T03:17:45;2.73;;;0.77;;
50821;SDS011;36794;51.212;6.980;2022-12-29T03:20:14;2.67;;;0.70;;
50821;SDS011;36794;51.212;6.980;2022-12-29T03:22:42;1.73;;;0.53;;
50821;SDS011;36794;51.212;6.980;2022-12-29T03:27:37;2.13;;;0.53;;
50821;SDS011;36794;51.212;6.980;2022-12-29T03:30:05;4.20;;;0.50;;
50821;SDS011;36794;51.212;6.980;2022-12-29T03:32:33;2.13;;;0.57;;
50821;SDS011;36794;51.212;6.980;2022-12-29T03:35:00;1.53;;;0.40;;
50821;SDS011;36794;51.212;6.980;2022-12-29T03:37:31;3.03;;;0.63;;
50821;SDS011;36794;51.212;6.980;2022-12-29T03:40:01;3.23;;;0.40;;
50821;SDS011;36794;51.212;6.980;2022-12-29T03:42:27;5.43;;;0.40;;
50821;SDS011;36794;51.212;6.980;2022-12-29T03:44:56;1.93;;;0.40;;
50821;SDS011;36794;51.212;6.980;2022-12-29T03:47:22;2.73;;;0.67;;
50821;SDS011;36794;51.212;6.980;2022-12-29T03:49:49;1.07;;;0.30;;
50821;SDS011;36794;51.212;6.980;2022-12-29T03:52:15;5.50;;;1.50;;
50821;SDS011;36794;51.212;6.980;2022-12-29T03:54:41;1.03;;;0.40;;
50821;SDS011;36794;51.212;6.980;2022-12-29T03:57:08;2.00;;;0.40;;
50821;SDS011;36794;51.212;6.980;2022-12-29T03:59:34;1.17;;;0.37;;
50821;SDS011;36794;51.212;6.980;2022-12-29T04:02:00;1.57;;;0.30;;
50821;SDS011;36794;51.212;6.980;2022-12-29T04:04:26;2.27;;;0.30;;
50821;SDS011;36794;51.212;6.980;2022-12-29T04:06:52;1.53;;;0.40;;
50821;SDS011;36794;51.212;6.980;2022-12-29T04:09:18;0.40;;;0.20;;
50821;SDS011;36794;51.212;6.980;2022-12-29T04:11:44;0.70;;;0.23;;
50821;SDS011;36794;51.212;6.980;2022-12-29T04:14:10;0.40;;;0.10;;
50821;SDS011;36794;51.212;6.980;2022-12-29T04:16:35;0.97;;;0.40;;
50821;SDS011;36794;51.212;6.980;2022-12-29T04:19:03;0.77;;;0.30;;
50821;SDS011;36794;51.212;6.980;2022-12-29T04:21:29;1.00;;;0.17;;
50821;SDS011;36794;51.212;6.980;2022-12-29T04:23:55;4.17;;;0.40;;
50821;SDS011;36794;51.212;6.980;2022-12-29T04:26:21;0.33;;;0.23;;
50821;SDS011;36794;51.212;6.980;2022-12-29T04:28:47;1.80;;;0.30;;
50821;SDS011;36794;51.212;6.980;2022-12-29T04:31:13;0.30;;;0.20;;
50821;SDS011;36794;51.212;6.980;2022-12-29T04:33:39;1.70;;;0.30;;
50821;SDS011;36794;51.212;6.980;2022-12-29T04:36:05;0.77;;;0.30;;
50821;SDS011;36794;51.212;6.980;2022-12-29T04:38:31;0.77;;;0.20;;
50821;SDS011;36794;51.212;6.980;2022-12-29T04:41:00;0.47;;;0.30;;
50821;SDS011;36794;51.212;6.980;2022-12-29T04:43:27;0.87;;;0.40;;
50821;SDS011;36794;51.212;6.980;2022-12-29T04:45:53;1.17;;;0.60;;
50821;SDS011;36794;51.212;6.980;2022-12-29T04:48:19;1.20;;;0.20;;
50821;SDS011;36794;51.212;6.980;2022-12-29T04:50:46;0.97;;;0.23;;
50821;SDS011;36794;51.212;6.980;2022-12-29T04:53:13;1.07;;;0.20;;
50821;SDS011;36794;51.212;6.980;2022-12-29T04:55:38;0.87;;;0.40;;
50821;SDS011;36794;51.212;6.980;2022-12-29T04:58:04;1.23;;;0.20;;
50821;SDS011;36794;51.212;6.980;2022-12-29T05:00:30;1.07;;;0.30;;
50821;SDS011;36794;51.212;6.980;2022-12-29T05:02:56;1.03;;;0.40;;
50821;SDS011;36794;51.212;6.980;2022-12-29T05:05:22;1.80;;;0.37;;
50821;SDS011;36794;51.212;6.980;2022-12-29T05:07:48;1.00;;;0.47;;
50821;SDS011;36794;51.212;6.980;2022-12-29T05:10:14;1.17;;;0.40;;
50821;SDS011;36794;51.212;6.980;2022-12-29T05:12:40;3.53;;;0.30;;
50821;SDS011;36794;51.212;6.980;2022-12-29T05:15:06;1.47;;;0.30;;
50821;SDS011;36794;51.212;6.980;2022-12-29T05:17:33;1.00;;;0.30;;
50821;SDS011;36794;51.212;6.980;2022-12-29T05:19:59;3.07;;;0.43;;
50821;SDS011;36794;51.212;6.980;2022-12-29T05:22:25;2.77;;;0.60;;
50821;SDS011;36794;51.212;6.980;2022-12-29T05:24:51;1.57;;;0.40;;
50821;SDS011;36794;51.212;6.980;2022-12-29T05:27:17;2.30;;;0.30;;
50821;SDS011;36794;51.212;6.980;2022-12-29T05:29:43;2.10;;;0.40;;
50821;SDS011;36794;51.212;6.980;2022-12-29T05:32:08;2.87;;;0.37;;
50821;SDS011;36794;51.212;6.980;2022-12-29T05:34:34;2.50;;;0.50;;
50821;SDS011;36794;51.212;6.980;2022-12-29T05:37:03;3.37;;;0.47;;
50821;SDS011;36794;51.212;6.980;2022-12-29T05:39:29;3.83;;;0.43;;
50821;SDS011;36794;51.212;6.980;2022-12-29T05:41:55;4.43;;;0.60;;
50821;SDS011;36794;51.212;6.980;2022-12-29T05:44:21;2.73;;;0.60;;
50821;SDS011;36794;51.212;6.980;2022-12-29T05:46:47;4.67;;;0.40;;
50821;SDS011;36794;51.212;6.980;2022-12-29T05:49:13;4.03;;;0.30;;
50821;SDS011;36794;51.212;6.980;2022-12-29T05:51:39;2.40;;;0.40;;
50821;SDS011;36794;51.212;6.980;2022-12-29T05:54:04;6.33;;;0.70;;
50821;SDS011;36794;51.212;6.980;2022-12-29T05:56:30;3.70;;;0.50;;
50821;SDS011;36794;51.212;6.980;2022-12-29T05:58:56;4.47;;;0.80;;
50821;SDS011;36794;51.212;6.980;2022-12-29T06:01:22;2.03;;;0.40;;
50821;SDS011;36794;51.212;6.980;2022-12-29T06:03:48;1.53;;;0.37;;
50821;SDS011;36794;51.212;6.980;2022-12-29T06:06:14;3.07;;;0.40;;
50821;SDS011;36794;51.212;6.980;2022-12-29T06:08:40;3.20;;;0.40;;
50821;SDS011;36794;51.212;6.980;2022-12-29T06:11:06;0.80;;;0.30;;
50821;SDS011;36794;51.212;6.980;2022-12-29T06:13:32;2.57;;;0.73;;
50821;SDS011;36794;51.212;6.980;2022-12-29T06:15:58;1.20;;;0.30;;
50821;SDS011;36794;51.212;6.980;2022-12-29T06:18:24;2.00;;;0.40;;
50821;SDS011;36794;51.212;6.980;2022-12-29T06:20:52;3.43;;;0.60;;
50821;SDS011;36794;51.212;6.980;2022-12-29T06:23:18;2.20;;;0.40;;
50821;SDS011;36794;51.212;6.980;2022-12-29T06:25:44;2.60;;;0.40;;
50821;SDS011;36794;51.212;6.980;2022-12-29T06:28:10;1.30;;;0.40;;
50821;SDS011;36794;51.212;6.980;2022-12-29T06:30:36;2.73;;;0.47;;
50821;SDS011;36794;51.212;6.980;2022-12-29T06:33:03;5.07;;;0.50;;
50821;SDS011;36794;51.212;6.980;2022-12-29T06:35:29;1.03;;;0.30;;
50821;SDS011;36794;51.212;6.980;2022-12-29T06:37:55;1.17;;;0.30;;
50821;SDS011;36794;51.212;6.980;2022-12-29T06:40:21;0.97;;;0.30;;
50821;SDS011;36794;51.212;6.980;2022-12-29T06:42:48;3.60;;;0.47;;
50821;SDS011;36794;51.212;6.980;2022-12-29T06:45:13;1.77;;;0.30;;
50821;SDS011;36794;51.212;6.980;2022-12-29T06:47:39;1.97;;;0.30;;
50821;SDS011;36794;51.212;6.980;2022-12-29T06:50:05;1.30;;;0.23;;
50821;SDS011;36794;51.212;6.980;2022-12-29T06:52:31;2.93;;;0.73;;
50821;SDS011;36794;51.212;6.980;2022-12-29T06:54:57;2.60;;;0.53;;
50821;SDS011;36794;51.212;6.980;2022-12-29T06:57:23;4.20;;;0.53;;
50821;SDS011;36794;51.212;6.980;2022-12-29T06:59:51;2.53;;;0.93;;
50821;SDS011;36794;51.212;6.980;2022-12-29T07:02:17;4.10;;;1.00;;
50821;SDS011;36794;51.212;6.980;2022-12-29T07:04:44;1.53;;;0.30;;
50821;SDS011;36794;51.212;6.980;2022-12-29T07:07:10;3.23;;;0.50;;
50821;SDS011;36794;51.212;6.980;2022-12-29T07:09:36;2.43;;;0.60;;
50821;SDS011;36794;51.212;6.980;2022-12-29T07:12:02;3.23;;;0.47;;
50821;SDS011;36794;51.212;6.980;2022-12-29T07:14:28;3.50;;;0.60;;
50821;SDS011;36794;51.212;6.980;2022-12-29T07:16:54;2.40;;;0.43;;
50821;SDS011;36794;51.212;6.980;2022-12-29T07:19:20;2.10;;;0.43;;
50821;SDS011;36794;51.212;6.980;2022-12-29T07:21:46;2.80;;;0.50;;
50821;SDS011;36794;51.212;6.980;2022-12-29T07:24:11;3.07;;;0.50;;
50821;SDS011;36794;51.212;6.980;2022-12-29T07:26:37;1.47;;;0.50;;
50821;SDS011;36794;51.212;6.980;2022-12-29T07:29:04;5.53;;;1.03;;
50821;SDS011;36794;51.212;6.980;2022-12-29T07:31:30;5.87;;;0.63;;
50821;SDS011;36794;51.212;6.980;2022-12-29T07:33:56;4.60;;;0.70;;
50821;SDS011;36794;51.212;6.980;2022-12-29T07:36:22;4.37;;;0.70;;
50821;SDS011;36794;51.212;6.980;2022-12-29T07:38:48;3.60;;;0.83;;
50821;SDS011;36794;51.212;6.980;2022-12-29T07:41:14;2.83;;;0.57;;
50821;SDS011;36794;51.212;6.980;2022-12-29T07:43:46;4.43;;;0.70;;
50821;SDS011;36794;51.212;6.980;2022-12-29T07:46:12;2.77;;;0.63;;
50821;SDS011;36794;51.212;6.980;2022-12-29T07:48:38;3.63;;;0.80;;
50821;SDS011;36794;51.212;6.980;2022-12-29T07:51:04;6.97;;;0.83;;
50821;SDS011;36794;51.212;6.980;2022-12-29T07:53:31;3.50;;;0.53;;
50821;SDS011;36794;51.212;6.980;2022-12-29T07:55:57;4.43;;;0.90;;
50821;SDS011;36794;51.212;6.980;2022-12-29T07:58:23;6.03;;;0.97;;
50821;SDS011;36794;51.212;6.980;2022-12-29T08:00:53;5.90;;;0.80;;
50821;SDS011;36794;51.212;6.980;2022-12-29T08:03:19;6.67;;;0.70;;
50821;SDS011;36794;51.212;6.980;2022-12-29T08:05:45;3.83;;;0.73;;
50821;SDS011;36794;51.212;6.980;2022-12-29T08:08:11;9.53;;;1.40;;
50821;SDS011;36794;51.212;6.980;2022-12-29T08:10:37;5.27;;;1.10;;
50821;SDS011;36794;51.212;6.980;2022-12-29T08:13:03;4.80;;;1.47;;
50821;SDS011;36794;51.212;6.980;2022-12-29T08:15:29;8.30;;;0.90;;
50821;SDS011;36794;51.212;6.980;2022-12-29T08:17:55;5.87;;;0.80;;
50821;SDS011;36794;51.212;6.980;2022-12-29T08:20:20;7.47;;;0.57;;
50821;SDS011;36794;51.212;6.980;2022-12-29T08:22:49;8.27;;;1.23;;
50821;SDS011;36794;51.212;6.980;2022-12-29T08:25:16;4.70;;;0.60;;
50821;SDS011;36794;51.212;6.980;2022-12-29T08:27:42;3.30;;;0.67;;
50821;SDS011;36794;51.212;6.980;2022-12-29T08:30:08;6.03;;;0.70;;
50821;SDS011;36794;51.212;6.980;2022-12-29T08:32:34;7.63;;;1.03;;
50821;SDS011;36794;51.212;6.980;2022-12-29T08:35:00;5.00;;;1.00;;
50821;SDS011;36794;51.212;6.980;2022-12-29T08:37:26;5.40;;;0.80;;
50821;SDS011;36794;51.212;6.980;2022-12-29T08:39:52;4.97;;;0.77;;
50821;SDS011;36794;51.212;6.980;2022-12-29T08:42:18;5.43;;;1.47;;
50821;SDS011;36794;51.212;6.980;2022-12-29T08:44:44;4.67;;;1.00;;
50821;SDS011;36794;51.212;6.980;2022-12-29T08:47:10;3.17;;;0.97;;
50821;SDS011;36794;51.212;6.980;2022-12-29T08:49:36;5.07;;;0.87;;
50821;SDS011;36794;51.212;6.980;2022-12-29T08:52:03;3.47;;;0.60;;
50821;SDS011;36794;51.212;6.980;2022-12-29T08:54:29;5.27;;;0.73;;
50821;SDS011;36794;51.212;6.980;2022-12-29T08:56:55;7.90;;;1.30;;
50821;SDS011;36794;51.212;6.980;2022-12-29T08:59:21;8.00;;;0.97;;
50821;SDS011;36794;51.212;6.980;2022-12-29T09:01:47;7.10;;;1.20;;
50821;SDS011;36794;51.212;6.980;2022-12-29T09:04:13;4.97;;;0.90;;
50821;SDS011;36794;51.212;6.980;2022-12-29T09:06:39;5.40;;;0.83;;
50821;SDS011;36794;51.212;6.980;2022-12-29T09:09:04;6.27;;;1.20;;
50821;SDS011;36794;51.212;6.980;2022-12-29T09:11:30;6.83;;;0.80;;
50821;SDS011;36794;51.212;6.980;2022-12-29T09:13:57;7.63;;;0.97;;
50821;SDS011;36794;51.212;6.980;2022-12-29T09:16:23;6.90;;;1.13;;
50821;SDS011;36794;51.212;6.980;2022-12-29T09:18:49;7.70;;;1.50;;
50821;SDS011;36794;51.212;6.980;2022-12-29T09:21:15;4.37;;;0.80;;
50821;SDS011;36794;51.212;6.980;2022-12-29T09:23:41;4.90;;;0.77;;
50821;SDS011;36794;51.212;6.980;2022-12-29T09:26:08;8.43;;;1.77;;
50821;SDS011;36794;51.212;6.980;2022-12-29T09:28:34;6.20;;;1.50;;
50821;SDS011;36794;51.212;6.980;2022-12-29T09:31:00;10.07;;;1.13;;
50821;SDS011;36794;51.212;6.980;2022-12-29T09:33:26;7.63;;;1.33;;
50821;SDS011;36794;51.212;6.980;2022-12-29T09:35:53;9.43;;;1.60;;
50821;SDS011;36794;51.212;6.980;2022-12-29T09:38:19;9.37;;;1.30;;
50821;SDS011;36794;51.212;6.980;2022-12-29T09:40:48;8.00;;;1.20;;
50821;SDS011;36794;51.212;6.980;2022-12-29T09:46:21;5.70;;;1.00;;
50821;SDS011;36794;51.212;6.980;2022-12-29T09:48:52;7.30;;;1.50;;
50821;SDS011;36794;51.212;6.980;2022-12-29T09:51:21;7.70;;;1.33;;
50821;SDS011;36794;51.212;6.980;2022-12-29T09:53:51;6.23;;;1.43;;
50821;SDS011;36794;51.212;6.980;2022-12-29T09:56:18;7.83;;;0.93;;
50821;SDS011;36794;51.212;6.980;2022-12-29T09:58:49;5.63;;;0.80;;
50821;SDS011;36794;51.212;6.980;2022-12-29T10:03:55;9.83;;;1.20;;
50821;SDS011;36794;51.212;6.980;2022-12-29T10:06:23;7.03;;;1.27;;
50821;SDS011;36794;51.212;6.980;2022-12-29T10:08:54;10.23;;;1.60;;
50821;SDS011;36794;51.212;6.980;2022-12-29T10:21:33;7.30;;;1.20;;
50821;SDS011;36794;51.212;6.980;2022-12-29T10:24:00;6.60;;;0.90;;
50821;SDS011;36794;51.212;6.980;2022-12-29T10:26:38;9.07;;;1.60;;
50821;SDS011;36794;51.212;6.980;2022-12-29T10:29:06;6.23;;;1.27;;
50821;SDS011;36794;51.212;6.980;2022-12-29T10:31:33;8.93;;;1.30;;
50821;SDS011;36794;51.212;6.980;2022-12-29T10:34:15;14.20;;;1.40;;
50821;SDS011;36794;51.212;6.980;2022-12-29T10:36:43;9.73;;;1.30;;
50821;SDS011;36794;51.212;6.980;2022-12-29T10:41:51;6.93;;;1.10;;
50821;SDS011;36794;51.212;6.980;2022-12-29T10:44:18;7.47;;;0.95;;
50821;SDS011;36794;51.212;6.980;2022-12-29T10:46:54;7.90;;;1.10;;
50821;SDS011;36794;51.212;6.980;2022-12-29T10:49:21;12.17;;;1.37;;
50821;SDS011;36794;51.212;6.980;2022-12-29T10:51:47;9.67;;;1.33;;
50821;SDS011;36794;51.212;6.980;2022-12-29T10:54:16;5.90;;;1.20;;
50821;SDS011;36794;51.212;6.980;2022-12-29T10:56:54;10.63;;;1.20;;
50821;SDS011;36794;51.212;6.980;2022-12-29T10:59:21;9.57;;;1.63;;
50821;SDS011;36794;51.212;6.980;2022-12-29T11:06:54;10.90;;;2.00;;
50821;SDS011;36794;51.212;6.980;2022-12-29T11:09:23;13.90;;;2.47;;
50821;SDS011;36794;51.212;6.980;2022-12-29T11:11:50;8.30;;;1.90;;
50821;SDS011;36794;51.212;6.980;2022-12-29T11:14:20;13.17;;;2.23;;
50821;SDS011;36794;51.212;6.980;2022-12-29T11:17:05;7.93;;;1.63;;
50821;SDS011;36794;51.212;6.980;2022-12-29T11:19:32;7.87;;;1.40;;
50821;SDS011;36794;51.212;6.980;2022-12-29T11:24:44;5.60;;;1.88;;
50821;SDS011;36794;51.212;6.980;2022-12-29T11:27:14;7.17;;;1.30;;
50821;SDS011;36794;51.212;6.980;2022-12-29T11:29:41;15.40;;;1.63;;
50821;SDS011;36794;51.212;6.980;2022-12-29T11:32:17;9.13;;;0.90;;
50821;SDS011;36794;51.212;6.980;2022-12-29T11:34:44;9.77;;;1.40;;
50821;SDS011;36794;51.212;6.980;2022-12-29T11:37:14;8.20;;;2.20;;
50821;SDS011;36794;51.212;6.980;2022-12-29T11:42:12;7.77;;;2.90;;
50821;SDS011;36794;51.212;6.980;2022-12-29T11:44:41;5.87;;;1.37;;
50821;SDS011;36794;51.212;6.980;2022-12-29T11:47:08;8.20;;;0.90;;
50821;SDS011;36794;51.212;6.980;2022-12-29T11:49:37;9.27;;;1.13;;
50821;SDS011;36794;51.212;6.980;2022-12-29T11:52:03;7.93;;;1.20;;
50821;SDS011;36794;51.212;6.980;2022-12-29T11:54:31;12.57;;;1.30;;
50821;SDS011;36794;51.212;6.980;2022-12-29T11:56:58;7.73;;;0.80;;
50821;SDS011;36794;51.212;6.980;2022-12-29T11:59:36;7.90;;;1.20;;
50821;SDS011;36794;51.212;6.980;2022-12-29T12:04:51;9.57;;;1.00;;
50821;SDS011;36794;51.212;6.980;2022-12-29T12:07:20;11.67;;;1.30;;
50821;SDS011;36794;51.212;6.980;2022-12-29T12:12:27;4.97;;;1.00;;
50821;SDS011;36794;51.212;6.980;2022-12-29T12:14:56;8.90;;;2.47;;
50821;SDS011;36794;51.212;6.980;2022-12-29T12:20:22;12.35;;;1.08;;
50821;SDS011;36794;51.212;6.980;2022-12-29T12:22:54;8.97;;;0.80;;
50821;SDS011;36794;51.212;6.980;2022-12-29T12:25:34;7.37;;;1.73;;
50821;SDS011;36794;51.212;6.980;2022-12-29T12:28:10;10.13;;;1.10;;
50821;SDS011;36794;51.212;6.980;2022-12-29T12:43:17;11.70;;;0.90;;
50821;SDS011;36794;51.212;6.980;2022-12-29T12:48:44;10.10;;;1.03;;
50821;SDS011;36794;51.212;6.980;2022-12-29T12:51:21;6.83;;;1.30;;
50821;SDS011;36794;51.212;6.980;2022-12-29T12:54:06;12.97;;;1.33;;
50821;SDS011;36794;51.212;6.980;2022-12-29T12:56:42;5.75;;;0.90;;
50821;SDS011;36794;51.212;6.980;2022-12-29T13:01:44;11.90;;;1.43;;
50821;SDS011;36794;51.212;6.980;2022-12-29T13:14:51;7.23;;;1.33;;
50821;SDS011;36794;51.212;6.980;2022-12-29T13:17:32;8.23;;;1.27;;
50821;SDS011;36794;51.212;6.980;2022-12-29T13:25:06;10.13;;;1.23;;
50821;SDS011;36794;51.212;6.980;2022-12-29T13:30:28;8.10;;;1.00;;
50821;SDS011;36794;51.212;6.980;2022-12-29T13:38:00;8.17;;;1.07;;
50821;SDS011;36794;51.212;6.980;2022-12-29T13:40:28;7.63;;;1.03;;
50821;SDS011;36794;51.212;6.980;2022-12-29T13:42:58;5.60;;;1.00;;
50821;SDS011;36794;51.212;6.980;2022-12-29T13:45:26;6.67;;;1.17;;
50821;SDS011;36794;51.212;6.980;2022-12-29T13:50:24;8.90;;;1.03;;
50821;SDS011;36794;51.212;6.980;2022-12-29T13:52:55;8.17;;;0.80;;
50821;SDS011;36794;51.212;6.980;2022-12-29T13:55:31;8.32;;;1.00;;
50821;SDS011;36794;51.212;6.980;2022-12-29T13:58:09;5.77;;;0.80;;
50821;SDS011;36794;51.212;6.980;2022-12-29T14:00:44;7.53;;;0.90;;
50821;SDS011;36794;51.212;6.980;2022-12-29T14:03:28;3.13;;;0.70;;
50821;SDS011;36794;51.212;6.980;2022-12-29T14:06:05;4.20;;;0.70;;
50821;SDS011;36794;51.212;6.980;2022-12-29T14:08:37;9.40;;;0.97;;
50821;SDS011;36794;51.212;6.980;2022-12-29T14:11:10;6.20;;;0.73;;
50821;SDS011;36794;51.212;6.980;2022-12-29T14:13:40;6.60;;;1.13;;
50821;SDS011;36794;51.212;6.980;2022-12-29T14:16:07;4.47;;;0.67;;
50821;SDS011;36794;51.212;6.980;2022-12-29T14:18:41;5.87;;;0.47;;
50821;SDS011;36794;51.212;6.980;2022-12-29T14:21:21;5.83;;;0.70;;
50821;SDS011;36794;51.212;6.980;2022-12-29T14:23:52;4.28;;;0.80;;
50821;SDS011;36794;51.212;6.980;2022-12-29T14:28:55;11.03;;;1.57;;
50821;SDS011;36794;51.212;6.980;2022-12-29T14:31:32;5.40;;;0.87;;
50821;SDS011;36794;51.212;6.980;2022-12-29T14:36:41;6.33;;;0.90;;
50821;SDS011;36794;51.212;6.980;2022-12-29T14:42:25;6.82;;;0.82;;
50821;SDS011;36794;51.212;6.980;2022-12-29T14:47:25;4.47;;;0.80;;
50821;SDS011;36794;51.212;6.980;2022-12-29T14:49:52;4.83;;;0.60;;
50821;SDS011;36794;51.212;6.980;2022-12-29T14:54:56;5.03;;;1.00;;
50821;SDS011;36794;51.212;6.980;2022-12-29T14:57:28;7.17;;;0.93;;
50821;SDS011;36794;51.212;6.980;2022-12-29T15:00:00;5.53;;;0.87;;
50821;SDS011;36794;51.212;6.980;2022-12-29T15:02:31;5.27;;;0.80;;
50821;SDS011;36794;51.212;6.980;2022-12-29T15:04:59;6.30;;;0.70;;
50821;SDS011;36794;51.212;6.980;2022-12-29T15:07:26;5.17;;;1.00;;
50821;SDS011;36794;51.212;6.980;2022-12-29T15:09:58;6.20;;;1.10;;
50821;SDS011;36794;51.212;6.980;2022-12-29T15:12:38;4.50;;;1.10;;
50821;SDS011;36794;51.212;6.980;2022-12-29T15:15:40;8.30;;;0.80;;
50821;SDS011;36794;51.212;6.980;2022-12-29T15:18:11;6.50;;;0.90;;
50821;SDS011;36794;51.212;6.980;2022-12-29T15:20:37;7.13;;;1.07;;
50821;SDS011;36794;51.212;6.980;2022-12-29T15:23:08;6.93;;;0.90;;
50821;SDS011;36794;51.212;6.980;2022-12-29T15:25:35;5.97;;;0.93;;
50821;SDS011;36794;51.212;6.980;2022-12-29T15:28:02;5.87;;;1.00;;
50821;SDS011;36794;51.212;6.980;2022-12-29T15:30:29;5.60;;;0.90;;
50821;SDS011;36794;51.212;6.980;2022-12-29T15:32:55;7.43;;;0.90;;
50821;SDS011;36794;51.212;6.980;2022-12-29T15:35:29;4.83;;;1.00;;
50821;SDS011;36794;51.212;6.980;2022-12-29T15:37:55;7.78;;;0.88;;
50821;SDS011;36794;51.212;6.980;2022-12-29T15:40:26;7.47;;;1.40;;
50821;SDS011;36794;51.212;6.980;2022-12-29T15:45:26;8.33;;;1.20;;
50821;SDS011;36794;51.212;6.980;2022-12-29T15:47:55;5.60;;;1.30;;
50821;SDS011;36794;51.212;6.980;2022-12-29T15:50:34;6.90;;;1.27;;
50821;SDS011;36794;51.212;6.980;2022-12-29T15:53:02;10.93;;;1.43;;
50821;SDS011;36794;51.212;6.980;2022-12-29T15:55:33;10.00;;;2.30;;
50821;SDS011;36794;51.212;6.980;2022-12-29T15:58:00;4.03;;;1.07;;
50821;SDS011;36794;51.212;6.980;2022-12-29T16:00:28;7.60;;;1.73;;
50821;SDS011;36794;51.212;6.980;2022-12-29T16:02:54;12.17;;;1.43;;
50821;SDS011;36794;51.212;6.980;2022-12-29T16:05:21;7.30;;;1.00;;
50821;SDS011;36794;51.212;6.980;2022-12-29T16:07:54;9.40;;;1.30;;
50821;SDS011;36794;51.212;6.980;2022-12-29T16:10:22;5.28;;;1.02;;
50821;SDS011;36794;51.212;6.980;2022-12-29T16:12:50;6.67;;;1.17;;
50821;SDS011;36794;51.212;6.980;2022-12-29T16:15:16;9.40;;;1.27;;
50821;SDS011;36794;51.212;6.980;2022-12-29T16:17:49;8.50;;;1.77;;
50821;SDS011;36794;51.212;6.980;2022-12-29T16:20:20;8.32;;;1.40;;
50821;SDS011;36794;51.212;6.980;2022-12-29T16:22:50;9.63;;;1.30;;
50821;SDS011;36794;51.212;6.980;2022-12-29T16:27:42;6.50;;;1.27;;
50821;SDS011;36794;51.212;6.980;2022-12-29T16:30:25;12.00;;;1.47;;
50821;SDS011;36794;51.212;6.980;2022-12-29T16:32:56;9.90;;;1.37;;
50821;SDS011;36794;51.212;6.980;2022-12-29T16:35:26;7.50;;;1.47;;
50821;SDS011;36794;51.212;6.980;2022-12-29T16:40:38;8.27;;;1.57;;
50821;SDS011;36794;51.212;6.980;2022-12-29T16:43:19;9.30;;;1.40;;
50821;SDS011;36794;51.212;6.980;2022-12-29T16:48:16;10.90;;;2.07;;
50821;SDS011;36794;51.212;6.980;2022-12-29T16:50:43;9.60;;;1.63;;
50821;SDS011;36794;51.212;6.980;2022-12-29T16:53:20;8.83;;;1.80;;
50821;SDS011;36794;51.212;6.980;2022-12-29T16:55:47;8.53;;;1.50;;
50821;SDS011;36794;51.212;6.980;2022-12-29T16:58:21;10.60;;;1.50;;
50821;SDS011;36794;51.212;6.980;2022-12-29T17:00:48;9.43;;;1.55;;
50821;SDS011;36794;51.212;6.980;2022-12-29T17:03:14;10.27;;;1.43;;